Time;durP1;ratioP1;P1;durP2;ratioP2;P2;SDS_P1;SDS_P2;PMS_P1;PMS_P2;Temp;Humidity;BMP_temperature;BMP_pressure;BME280_temperature;BME280_humidity;BME280_pressure;Samples;Min_cycle;Max_cycle;Signal;HPM_P1;HPM_P2
2022/01/29 00:02:26;;;;;;;3.88;1.38;;;;;;;0.87;75.35;100704.34;4822445;29;20054;-67
2022/01/29 00:04:57;;;;;;;4.00;1.40;;;;;;;0.84;75.67;100708.34;4825084;29;20043;-67
2022/01/29 00:07:27;;;;;;;3.05;1.40;;;;;;;0.89;76.04;100707.78;4826618;29;20050;-68
2022/01/29 00:10:05;;;;;;;5.20;1.75;;;;;;;0.94;76.34;100716.44;4822258;29;20062;-69
2022/01/29 00:12:35;;;;;;;3.95;1.50;;;;;;;1.03;75.87;100706.03;4824983;29;20080;-68
2022/01/29 00:15:05;;;;;;;3.23;1.40;;;;;;;1.08;76.37;100712.19;4827224;29;20554;-68
2022/01/29 00:17:34;;;;;;;3.45;1.10;;;;;;;1.14;76.36;100700.78;4825165;29;20299;-69
2022/01/29 00:20:04;;;;;;;1.77;1.00;;;;;;;1.30;76.23;100705.84;4824573;29;20081;-66
2022/01/29 00:22:33;;;;;;;5.20;1.92;;;;;;;1.43;75.53;100714.03;4824759;29;20520;-66
2022/01/29 00:25:02;;;;;;;2.97;1.30;;;;;;;1.53;75.33;100722.13;4823208;29;20043;-66
2022/01/29 00:27:34;;;;;;;0.93;0.75;;;;;;;1.62;74.44;100716.69;4824725;29;20294;-66
2022/01/29 00:30:09;;;;;;;3.47;1.25;;;;;;;1.65;73.63;100702.63;4825451;29;20046;-64
2022/01/29 00:32:40;;;;;;;4.18;1.45;;;;;;;1.75;72.60;100719.91;4824550;29;20065;-65
2022/01/29 00:35:12;;;;;;;4.32;1.52;;;;;;;1.79;72.01;100715.91;4825729;29;20445;-65
2022/01/29 00:37:42;;;;;;;3.17;1.20;;;;;;;1.87;71.86;100724.72;4825503;29;20046;-65
2022/01/29 00:40:13;;;;;;;2.73;1.20;;;;;;;1.91;71.87;100724.06;4824521;29;20560;-65
2022/01/29 00:42:42;;;;;;;2.45;1.42;;;;;;;1.90;70.46;100734.91;4825563;29;20289;-66
2022/01/29 00:45:11;;;;;;;5.82;1.23;;;;;;;1.90;70.04;100725.72;4808110;29;20047;-67
2022/01/29 00:47:42;;;;;;;4.50;0.90;;;;;;;1.93;69.73;100745.16;4826465;29;20103;-65
2022/01/29 00:50:14;;;;;;;3.95;1.60;;;;;;;1.88;69.38;100746.56;4825295;29;20058;-65
2022/01/29 00:52:42;;;;;;;4.72;1.30;;;;;;;1.81;69.48;100739.50;4826292;29;20107;-65
2022/01/29 00:55:12;;;;;;;2.40;1.08;;;;;;;1.77;70.01;100742.66;4825025;29;20046;-65
2022/01/29 00:57:43;;;;;;;2.03;1.30;;;;;;;1.80;68.90;100756.22;4815078;29;20051;-65
2022/01/29 01:00:16;;;;;;;2.75;1.05;;;;;;;1.81;68.89;100744.53;4823455;29;20545;-66
2022/01/29 01:02:45;;;;;;;2.60;1.30;;;;;;;1.79;68.45;100746.09;4823984;29;20057;-65
2022/01/29 01:05:15;;;;;;;5.53;1.60;;;;;;;1.80;68.26;100742.81;4824208;29;20077;-65
2022/01/29 01:07:46;;;;;;;5.20;1.30;;;;;;;1.76;68.78;100745.94;4825002;29;20305;-65
2022/01/29 01:10:24;;;;;;;2.38;1.30;;;;;;;1.76;67.95;100750.97;4824950;29;20058;-66
2022/01/29 01:12:56;;;;;;;4.28;1.20;;;;;;;1.78;68.78;100745.22;4824996;29;20385;-68
2022/01/29 01:15:25;;;;;;;5.18;1.27;;;;;;;1.77;67.99;100742.66;4824179;29;20129;-66
2022/01/29 01:17:54;;;;;;;3.13;1.20;;;;;;;1.73;68.12;100740.75;4808516;29;20744;-67
2022/01/29 01:20:27;;;;;;;2.30;1.00;;;;;;;1.70;67.94;100740.59;4825551;29;20106;-67
2022/01/29 01:22:56;;;;;;;3.90;1.48;;;;;;;1.69;68.58;100749.78;4821369;29;20077;-67
2022/01/29 01:25:25;;;;;;;3.42;1.40;;;;;;;1.66;68.30;100748.75;4823722;29;20072;-67
2022/01/29 01:27:55;;;;;;;3.03;1.27;;;;;;;1.59;68.58;100739.16;4825671;29;20069;-67
2022/01/29 01:30:29;;;;;;;4.95;1.20;;;;;;;1.53;67.94;100732.19;4823535;29;20050;-67
2022/01/29 01:32:57;;;;;;;4.20;1.60;;;;;;;1.46;68.20;100720.09;4825433;29;20046;-67
2022/01/29 01:35:34;;;;;;;2.75;1.30;;;;;;;1.30;68.23;100738.53;4822207;29;20046;-67
2022/01/29 01:38:12;;;;;;;3.20;1.20;;;;;;;0.99;69.43;100715.06;4807563;29;20051;-65
2022/01/29 01:40:50;;;;;;;4.00;1.15;;;;;;;0.81;69.66;100719.09;4822953;29;20060;-65
2022/01/29 01:43:18;;;;;;;2.92;1.48;;;;;;;0.78;70.00;100739.03;4825600;29;20054;-65
2022/01/29 01:45:47;;;;;;;2.22;0.82;;;;;;;0.63;70.45;100734.03;4822934;29;20050;-68
2022/01/29 01:48:22;;;;;;;1.88;1.35;;;;;;;0.56;70.45;100736.09;4825870;29;20133;-65
2022/01/29 01:50:53;;;;;;;3.28;1.33;;;;;;;0.44;70.80;100730.41;4825528;29;20054;-65
2022/01/29 01:53:50;;;;;;;3.67;1.55;;;;;;;0.35;71.01;100730.75;4824578;29;20114;-66
2022/01/29 01:56:19;;;;;;;2.03;1.08;;;;;;;0.24;71.73;100730.94;4825669;29;20054;-66
2022/01/29 01:58:47;;;;;;;1.93;0.97;;;;;;;0.13;71.89;100730.31;4824078;29;20125;-65
2022/01/29 02:01:16;;;;;;;1.88;1.27;;;;;;;0.05;71.72;100734.00;4821005;29;20512;-65
2022/01/29 02:03:57;;;;;;;1.67;1.10;;;;;;;-0.10;72.38;100730.66;4823271;29;20415;-67
2022/01/29 02:06:31;;;;;;;1.63;1.05;;;;;;;-0.19;72.52;100728.44;4794154;29;20057;-67
2022/01/29 02:09:01;;;;;;;2.08;1.13;;;;;;;-0.20;72.57;100731.75;4825111;29;20116;-67
2022/01/29 02:11:30;;;;;;;1.88;0.88;;;;;;;-0.24;72.92;100742.34;4822953;29;20038;-67
2022/01/29 02:14:00;;;;;;;1.63;0.95;;;;;;;-0.30;73.08;100739.50;4822805;29;20078;-69
2022/01/29 02:16:31;;;;;;;2.33;1.30;;;;;;;-0.27;73.38;100739.69;4825472;29;20122;-68
2022/01/29 02:19:00;;;;;;;4.07;1.40;;;;;;;-0.27;73.35;100739.69;4825483;29;20088;-67
2022/01/29 02:21:31;;;;;;;5.32;1.83;;;;;;;-0.26;73.46;100741.41;4825126;29;20408;-68
2022/01/29 02:24:01;;;;;;;1.85;1.20;;;;;;;-0.28;73.45;100735.44;4823829;29;20489;-68
2022/01/29 02:26:30;;;;;;;3.95;1.20;;;;;;;-0.27;73.62;100726.28;4820574;29;20050;-65
2022/01/29 02:28:59;;;;;;;5.45;2.47;;;;;;;-0.32;73.65;100736.03;4820731;29;20073;-65
2022/01/29 02:31:28;;;;;;;2.47;1.27;;;;;;;-0.52;73.76;100736.50;4825021;29;20059;-65
2022/01/29 02:33:57;;;;;;;2.83;1.40;;;;;;;-0.49;73.68;100751.72;4823872;29;20046;-65
2022/01/29 02:36:26;;;;;;;4.80;1.63;;;;;;;-0.39;74.05;100749.00;4821193;29;20061;-65
2022/01/29 02:39:00;;;;;;;5.60;1.70;;;;;;;-0.47;73.82;100749.28;4824847;29;20054;-65
2022/01/29 02:41:29;;;;;;;3.45;1.50;;;;;;;-0.52;73.65;100746.53;4824903;29;20055;-65
2022/01/29 02:44:04;;;;;;;3.50;1.57;;;;;;;-0.49;73.76;100755.88;4822710;29;20141;-65
2022/01/29 02:47:08;;;;;;;7.32;1.45;;;;;;;-0.63;73.84;100742.50;4822192;29;20054;-65
2022/01/29 02:49:37;;;;;;;5.28;1.77;;;;;;;-0.79;73.99;100747.34;4824871;29;20055;-66
2022/01/29 02:52:07;;;;;;;3.70;1.50;;;;;;;-0.88;74.04;100755.19;4808866;29;20475;-65
2022/01/29 02:54:37;;;;;;;3.47;1.55;;;;;;;-0.90;74.35;100760.88;4824488;29;20038;-65
2022/01/29 02:57:07;;;;;;;3.00;1.80;;;;;;;-0.81;74.38;100759.78;4821599;29;20050;-65
2022/01/29 02:59:36;;;;;;;;;;;;;;;-0.87;74.39;100751.91;4822564;29;20043;-65
2022/01/29 03:02:04;;;;;;;2.97;1.33;;;;;;;-0.94;74.18;100753.94;4824912;29;20273;-65
2022/01/29 03:04:37;;;;;;;4.20;1.67;;;;;;;-0.93;74.40;100756.53;4820612;29;20043;-65
2022/01/29 03:07:06;;;;;;;4.03;1.85;;;;;;;-1.00;74.39;100753.56;4822109;29;20059;-65
2022/01/29 03:09:40;;;;;;;3.25;2.03;;;;;;;-1.07;74.36;100761.47;4824164;29;20133;-65
2022/01/29 03:12:10;;;;;;;4.45;1.83;;;;;;;-1.04;74.44;100759.16;4821051;29;20062;-65
2022/01/29 03:14:39;;;;;;;3.22;1.63;;;;;;;-1.09;74.37;100752.97;4823586;29;20134;-65
2022/01/29 03:17:21;;;;;;;4.20;1.70;;;;;;;-1.07;74.40;100746.44;4807344;29;20038;-65
2022/01/29 03:19:52;;;;;;;2.65;1.45;;;;;;;-1.06;74.56;100743.16;4823422;29;20871;-65
2022/01/29 03:22:22;;;;;;;4.90;1.90;;;;;;;-1.14;74.46;100745.19;4822654;29;20050;-65
2022/01/29 03:25:00;;;;;;;5.03;1.73;;;;;;;-1.04;74.66;100741.63;4821755;29;20053;-65
2022/01/29 03:27:30;;;;;;;7.70;2.00;;;;;;;-1.08;74.46;100729.69;4823349;29;20133;-68
2022/01/29 03:29:59;;;;;;;6.68;2.10;;;;;;;-1.14;74.58;100732.66;4823878;29;20070;-68
2022/01/29 03:32:32;;;;;;;4.72;1.98;;;;;;;-1.06;74.59;100743.16;4823124;29;20054;-68
2022/01/29 03:35:02;;;;;;;7.43;3.03;;;;;;;-0.96;74.62;100735.44;4822004;29;20070;-65
2022/01/29 03:37:31;;;;;;;4.90;1.80;;;;;;;-0.96;74.41;100751.31;4821649;29;20057;-66
2022/01/29 03:40:08;;;;;;;4.18;2.10;;;;;;;-1.13;74.45;100746.94;4826672;29;20058;-65
2022/01/29 03:42:42;;;;;;;5.03;2.00;;;;;;;-1.33;73.80;100741.44;4826393;29;20054;-66
2022/01/29 03:45:19;;;;;;;6.18;2.08;;;;;;;-1.54;74.25;100739.31;4825557;29;20485;-66
2022/01/29 03:47:52;;;;;;;7.22;2.40;;;;;;;-1.53;74.12;100743.53;4826518;29;20051;-65
2022/01/29 03:50:22;;;;;;;4.63;2.03;;;;;;;-1.61;74.14;100737.16;4826374;29;20130;-65
2022/01/29 03:52:51;;;;;;;9.52;2.80;;;;;;;-1.58;73.93;100739.88;4824997;29;20333;-66
2022/01/29 03:55:24;;;;;;;5.55;2.42;;;;;;;-1.44;74.24;100733.25;4827044;29;20056;-65
2022/01/29 03:57:53;;;;;;;4.97;2.10;;;;;;;-1.45;74.02;100737.41;4826216;29;20089;-65
2022/01/29 04:00:22;;;;;;;5.47;1.92;;;;;;;-1.46;74.33;100735.66;4825691;29;20046;-65
2022/01/29 04:02:51;;;;;;;5.23;2.03;;;;;;;-1.45;74.45;100737.41;4827651;29;20049;-65
2022/01/29 04:05:20;;;;;;;5.88;2.13;;;;;;;-1.42;74.11;100730.06;4825296;29;20477;-66
2022/01/29 04:07:48;;;;;;;4.70;2.20;;;;;;;-1.37;74.20;100730.38;4826795;29;20049;-65
2022/01/29 04:10:19;;;;;;;2.58;1.52;;;;;;;-1.38;74.25;100737.00;4826362;29;20062;-65
2022/01/29 04:13:05;;;;;;;4.63;1.60;;;;;;;-1.34;74.12;100724.69;4826063;29;20087;-65
2022/01/29 04:15:34;;;;;;;4.82;1.90;;;;;;;-1.31;74.37;100724.88;4825254;29;20054;-65
2022/01/29 04:18:03;;;;;;;6.17;2.00;;;;;;;-1.25;74.04;100720.25;4826175;29;20042;-65
2022/01/29 04:20:32;;;;;;;3.33;1.80;;;;;;;-1.30;74.16;100714.09;4806777;29;20631;-65
2022/01/29 04:23:01;;;;;;;3.50;1.65;;;;;;;-1.36;74.02;100722.94;4825137;29;20133;-65
2022/01/29 04:25:29;;;;;;;5.82;2.15;;;;;;;-1.39;73.91;100722.75;4825800;29;20038;-65
2022/01/29 04:28:00;;;;;;;4.47;1.80;;;;;;;-1.54;73.99;100721.81;4826737;29;20053;-66
2022/01/29 04:30:39;;;;;;;4.20;2.17;;;;;;;-1.66;74.00;100716.03;4823449;29;20055;-65
2022/01/29 04:33:27;;;;;;;5.43;2.58;;;;;;;-1.64;74.24;100718.59;4806364;29;20046;-65
2022/01/29 04:36:01;;;;;;;4.13;2.35;;;;;;;-1.63;74.03;100716.19;4822367;29;20050;-66
2022/01/29 04:38:31;;;;;;;10.68;3.40;;;;;;;-1.66;73.96;100706.00;4808847;29;20434;-65
2022/01/29 04:41:03;;;;;;;6.95;2.28;;;;;;;-1.73;74.24;100703.00;4823267;29;20050;-66
2022/01/29 04:43:35;;;;;;;6.50;3.00;;;;;;;-1.84;73.92;100704.81;4822432;29;20057;-65
2022/01/29 04:46:17;;;;;;;6.80;2.38;;;;;;;-1.92;74.06;100705.94;4826559;29;20121;-65
2022/01/29 04:48:46;;;;;;;6.10;2.45;;;;;;;-1.82;74.85;100714.94;4821947;29;20081;-66
2022/01/29 04:51:14;;;;;;;5.80;2.27;;;;;;;-1.85;74.85;100714.72;4822600;29;20077;-67
2022/01/29 04:53:43;;;;;;;6.00;2.80;;;;;;;-1.78;74.63;100715.22;4823028;29;20046;-70
2022/01/29 04:56:13;;;;;;;4.65;2.78;;;;;;;-1.82;74.71;100725.78;4822815;29;20062;-70
2022/01/29 04:58:43;;;;;;;8.07;2.53;;;;;;;-1.87;75.04;100729.63;4823599;29;20034;-70
2022/01/29 05:01:12;;;;;;;3.28;2.47;;;;;;;-2.04;74.65;100730.19;4823285;29;20517;-70
2022/01/29 05:03:41;;;;;;;4.93;2.60;;;;;;;-2.03;74.93;100737.78;4824909;29;20044;-69
2022/01/29 05:06:12;;;;;;;4.13;2.20;;;;;;;-2.14;74.39;100743.72;4823512;29;20038;-70
2022/01/29 05:08:41;;;;;;;6.97;2.55;;;;;;;-2.16;74.95;100739.38;4813300;29;20138;-70
2022/01/29 05:11:12;;;;;;;5.30;2.55;;;;;;;-2.12;74.93;100741.31;4826105;29;20108;-69
2022/01/29 05:13:43;;;;;;;6.10;2.10;;;;;;;-2.24;75.16;100740.50;4823422;29;20046;-70
2022/01/29 05:26:53;;;;;;;7.03;2.38;;;;;;;-2.23;75.06;100719.75;4824180;29;20401;-70
2022/01/29 05:29:26;;;;;;;5.07;1.92;;;;;;;-2.38;75.07;100726.22;4821223;29;20058;-70
2022/01/29 05:31:56;;;;;;;5.05;2.05;;;;;;;-2.39;74.79;100734.47;4822479;29;20111;-70
2022/01/29 05:34:25;;;;;;;7.03;2.20;;;;;;;-2.46;74.59;100722.31;4824452;29;20129;-69
2022/01/29 05:36:54;;;;;;;4.10;2.38;;;;;;;-2.47;75.28;100710.63;4823605;29;20070;-70
2022/01/29 05:39:24;;;;;;;4.78;2.08;;;;;;;-2.42;75.24;100716.75;4822903;29;20069;-70
2022/01/29 05:41:53;;;;;;;5.80;2.50;;;;;;;-2.29;75.21;100716.81;4822009;29;20042;-70
2022/01/29 05:44:24;;;;;;;12.45;4.63;;;;;;;-2.27;75.43;100715.28;4823338;29;20409;-70
2022/01/29 05:46:53;;;;;;;12.63;4.55;;;;;;;-2.28;75.45;100723.56;4822424;29;20058;-70
2022/01/29 05:49:22;;;;;;;12.67;5.60;;;;;;;-2.51;75.34;100723.63;4824113;29;20536;-70
2022/01/29 05:51:50;;;;;;;21.10;6.18;;;;;;;-2.66;75.37;100718.47;4823437;29;20050;-70
2022/01/29 05:54:19;;;;;;;11.98;4.88;;;;;;;-2.74;75.70;100713.00;4822602;29;20047;-70
2022/01/29 05:56:48;;;;;;;18.88;5.60;;;;;;;-2.68;75.63;100715.00;4823059;29;20057;-70
2022/01/29 05:59:17;;;;;;;11.27;4.20;;;;;;;-2.67;75.89;100710.88;4823634;29;20057;-66
2022/01/29 06:01:47;;;;;;;5.95;2.83;;;;;;;-2.75;75.55;100707.88;4823693;29;20147;-67
2022/01/29 06:04:17;;;;;;;7.07;3.15;;;;;;;-2.82;76.01;100686.63;4823969;29;20137;-67
2022/01/29 06:06:46;;;;;;;8.23;3.00;;;;;;;-2.74;75.97;100705.50;4824455;29;20078;-66
2022/01/29 06:09:15;;;;;;;4.47;2.67;;;;;;;-2.81;75.83;100715.81;4822711;29;20174;-66
2022/01/29 06:11:44;;;;;;;9.80;3.90;;;;;;;-2.78;76.08;100728.50;4822238;29;20038;-66
2022/01/29 06:14:13;;;;;;;6.80;3.08;;;;;;;-2.57;76.26;100735.75;4824583;29;20035;-66
2022/01/29 06:16:42;;;;;;;10.18;3.47;;;;;;;-2.58;76.80;100734.00;4824361;29;20054;-66
2022/01/29 06:19:13;;;;;;;11.77;3.30;;;;;;;-2.33;76.88;100737.38;4825477;29;20045;-66
2022/01/29 06:21:42;;;;;;;4.95;3.42;;;;;;;-2.05;76.86;100735.94;4822954;29;20046;-66
2022/01/29 06:24:10;;;;;;;11.03;3.20;;;;;;;-1.85;76.75;100732.25;4822873;29;20048;-66
2022/01/29 06:26:39;;;;;;;6.53;3.67;;;;;;;-1.76;76.64;100738.72;4823321;29;20051;-66
2022/01/29 06:29:08;;;;;;;8.00;4.13;;;;;;;-1.78;76.78;100739.38;4825170;29;20042;-67
2022/01/29 06:31:37;;;;;;;6.50;3.30;;;;;;;-1.84;76.76;100733.97;4820729;29;20042;-67
2022/01/29 06:34:06;;;;;;;7.70;2.97;;;;;;;-1.92;76.61;100735.97;4824961;29;20054;-66
2022/01/29 06:36:37;;;;;;;8.32;3.53;;;;;;;-1.97;76.50;100737.31;4823987;29;20061;-66
2022/01/29 06:39:06;;;;;;;8.80;4.28;;;;;;;-1.95;77.27;100743.28;4822666;29;20046;-66
2022/01/29 06:41:35;;;;;;;6.57;2.90;;;;;;;-1.92;77.29;100745.97;4822780;29;20050;-66
2022/01/29 06:44:04;;;;;;;8.82;2.80;;;;;;;-2.03;76.64;100736.91;4819589;29;20073;-66
2022/01/29 06:46:33;;;;;;;5.05;2.83;;;;;;;-2.21;76.87;100735.69;4820249;29;20386;-68
2022/01/29 06:49:02;;;;;;;6.65;2.67;;;;;;;-2.28;76.46;100736.06;4804217;29;20140;-66
2022/01/29 06:51:31;;;;;;;8.32;2.80;;;;;;;-2.28;76.59;100733.56;4824236;29;20053;-67
2022/01/29 06:54:01;;;;;;;8.43;2.75;;;;;;;-2.23;76.64;100732.25;4823248;29;20103;-65
2022/01/29 06:56:30;;;;;;;8.00;2.75;;;;;;;-2.14;76.88;100740.34;4823657;29;20050;-67
2022/01/29 06:58:58;;;;;;;6.32;2.85;;;;;;;-2.00;76.97;100731.22;4818122;29;20046;-67
2022/01/29 07:01:37;;;;;;;5.88;2.67;;;;;;;-1.94;76.91;100722.50;4817290;29;20190;-66
2022/01/29 07:04:06;;;;;;;5.47;2.53;;;;;;;-1.99;76.45;100728.81;4815159;29;20500;-67
2022/01/29 07:06:36;;;;;;;7.40;2.38;;;;;;;-1.97;76.78;100727.31;4816620;29;20050;-67
2022/01/29 07:09:06;;;;;;;6.93;2.60;;;;;;;-2.06;76.80;100744.19;4814451;29;20058;-67
2022/01/29 07:11:35;;;;;;;6.65;2.83;;;;;;;-2.08;76.17;100748.22;4820603;29;20114;-67
2022/01/29 07:14:04;;;;;;;7.55;2.67;;;;;;;-2.18;76.16;100735.88;4819411;29;20400;-67
2022/01/29 07:16:35;;;;;;;5.43;3.00;;;;;;;-2.16;76.02;100739.38;4817306;29;20187;-68
2022/01/29 07:19:05;;;;;;;7.88;3.38;;;;;;;-1.77;76.57;100741.97;4824766;29;20310;-67
2022/01/29 07:21:33;;;;;;;;;;;;;;;-1.65;76.05;100739.38;4819744;29;20074;-67
2022/01/29 07:24:03;;;;;;;10.20;4.33;;;;;;;-1.51;76.18;100737.00;4821797;29;19983;-65
2022/01/29 07:26:33;;;;;;;10.75;4.75;;;;;;;-1.07;76.20;100738.91;4822019;29;20057;-67
2022/01/29 07:29:02;;;;;;;9.63;4.57;;;;;;;-0.98;75.93;100741.97;4817464;29;20051;-66
2022/01/29 07:31:30;;;;;;;9.90;4.30;;;;;;;-0.94;76.04;100748.94;4822399;29;20127;-67
2022/01/29 07:33:59;;;;;;;11.43;4.88;;;;;;;-0.89;75.76;100745.06;4823312;29;20082;-66
2022/01/29 07:36:28;;;;;;;11.00;4.18;;;;;;;-0.83;75.63;100742.94;4822268;29;20080;-66
2022/01/29 07:38:57;;;;;;;8.27;4.60;;;;;;;-0.77;75.50;100738.31;4818167;29;20038;-65
2022/01/29 07:41:25;;;;;;;8.18;4.03;;;;;;;-0.38;75.75;100745.69;4828006;29;20050;-66
2022/01/29 07:43:55;;;;;;;14.32;7.10;;;;;;;0.08;75.70;100739.22;4823289;29;20043;-66
2022/01/29 07:46:24;;;;;;;10.55;4.50;;;;;;;0.24;75.26;100735.97;4816931;29;20448;-66
2022/01/29 07:48:53;;;;;;;8.93;4.50;;;;;;;0.36;74.88;100731.63;4827347;29;20068;-65
2022/01/29 07:51:25;;;;;;;27.20;9.43;;;;;;;0.39;75.22;100731.78;4806032;29;20074;-65
2022/01/29 07:53:54;;;;;;;21.67;9.45;;;;;;;0.44;74.77;100730.41;4814825;29;20050;-66
2022/01/29 07:56:23;;;;;;;14.20;4.13;;;;;;;0.22;74.31;100732.47;4820403;29;20070;-66
2022/01/29 07:58:52;;;;;;;10.00;3.95;;;;;;;-0.10;74.98;100725.63;4824486;29;20397;-66
2022/01/29 08:01:22;;;;;;;13.77;4.85;;;;;;;-0.28;75.53;100727.91;4809160;29;20059;-66
2022/01/29 08:03:52;;;;;;;14.18;5.68;;;;;;;-0.41;75.57;100722.97;4822189;29;20106;-66
2022/01/29 08:06:33;;;;;;;14.55;5.75;;;;;;;-0.47;75.83;100725.09;4820459;29;20050;-67
2022/01/29 08:09:30;;;;;;;16.08;4.82;;;;;;;-0.44;75.88;100719.41;4823672;29;20066;-66
2022/01/29 08:20:34;;;;;;;13.65;5.10;;;;;;;-0.60;76.37;100707.56;4793329;29;20053;-68
2022/01/29 08:23:50;;;;;;;11.80;5.35;;;;;;;-0.63;76.84;100702.41;4822530;29;20489;-66
2022/01/29 08:27:38;;;;;;;10.98;4.75;;;;;;;-0.54;77.21;100702.94;4580659;24;21888;-66
2022/01/29 08:30:08;;;;;;;13.93;4.57;;;;;;;-0.40;77.17;100712.16;4802123;29;20073;-62
2022/01/29 08:32:51;;;;;;;;;;;;;;;-0.22;77.24;100715.75;4805892;29;20055;-62
2022/01/29 08:51:17;;;;;;;10.65;3.22;;;;;;;0.51;77.63;100702.34;5085533;28;20537;-63
2022/01/29 08:53:52;;;;;;;8.48;3.30;;;;;;;0.59;77.34;100702.00;5087055;28;20047;-65
2022/01/29 08:57:36;;;;;;;7.38;3.25;;;;;;;0.64;77.67;100702.25;5085182;28;20505;-63
2022/01/29 09:00:35;;;;;;;7.90;3.28;;;;;;;0.66;77.48;100698.16;5074766;28;20063;-63
2022/01/29 09:03:06;;;;;;;8.75;4.07;;;;;;;0.64;77.28;100699.72;5081336;28;20078;-63
2022/01/29 09:05:36;;;;;;;;;;;;;;;0.76;77.84;100694.50;5087126;28;20044;-63
2022/01/29 09:08:05;;;;;;;14.98;4.43;;;;;;;0.93;77.53;100694.63;5082761;28;19920;-63
2022/01/29 09:10:34;;;;;;;;;;;;;;;0.97;77.84;100694.00;5081265;28;20456;-63
2022/01/29 09:13:03;;;;;;;9.93;4.22;;;;;;;0.95;77.33;100688.03;5084578;28;20417;-64
2022/01/29 09:15:32;;;;;;;7.65;2.80;;;;;;;1.03;77.54;100696.81;5110202;27;20039;-62
2022/01/29 09:18:00;;;;;;;13.03;4.03;;;;;;;1.06;77.90;100691.09;5150930;27;20066;-63
2022/01/29 09:20:31;;;;;;;9.75;4.60;;;;;;;1.11;77.49;100685.53;5148203;27;20111;-65
2022/01/29 09:23:01;;;;;;;12.13;4.43;;;;;;;1.14;77.44;100689.88;5122316;27;20385;-63
2022/01/29 09:25:30;;;;;;;13.88;4.70;;;;;;;0.92;77.01;100631.72;5148783;27;20396;-63
2022/01/29 09:27:59;;;;;;;10.07;4.67;;;;;;;1.29;77.15;100685.66;5149230;27;20035;-63
2022/01/29 09:30:27;;;;;;;10.95;4.13;;;;;;;1.31;77.51;100687.47;5150674;27;20540;-62
2022/01/29 09:32:56;;;;;;;8.40;4.53;;;;;;;1.28;77.62;100673.84;5148932;27;20055;-63
2022/01/29 09:35:26;;;;;;;9.73;4.03;;;;;;;1.40;77.75;100676.13;5152998;27;20091;-63
2022/01/29 09:42:29;;;;;;;11.40;3.97;;;;;;;1.57;77.48;100668.66;5132341;27;20053;-65
2022/01/29 09:44:58;;;;;;;9.82;3.42;;;;;;;1.67;77.59;100670.00;5141107;27;20051;-62
2022/01/29 09:47:46;;;;;;;8.35;3.63;;;;;;;1.66;77.63;100674.16;5152405;27;20051;-65
2022/01/29 09:50:17;;;;;;;15.00;4.25;;;;;;;1.70;77.33;100667.63;5147307;27;20157;-62
2022/01/29 09:52:46;;;;;;;8.70;4.43;;;;;;;1.82;77.28;100658.19;5154211;27;20531;-62
2022/01/29 09:55:14;;;;;;;7.30;4.05;;;;;;;1.77;76.81;100657.09;5150852;27;20488;-62
2022/01/29 09:57:45;;;;;;;9.63;3.72;;;;;;;1.73;77.20;100655.19;5149784;27;20072;-62
2022/01/29 10:00:15;;;;;;;14.48;5.13;;;;;;;1.68;77.00;100641.56;5131652;27;20039;-62
2022/01/29 10:02:44;;;;;;;12.75;4.47;;;;;;;1.68;76.95;100632.31;5124811;27;20555;-63
2022/01/29 10:09:14;;;;;;;20.75;7.25;;;;;;;1.87;76.84;100629.09;4317004;23;20322;-66
2022/01/29 10:16:11;;;;;;;15.85;4.93;;;;;;;1.85;77.60;100610.50;4205990;27;20079;-65
2022/01/29 10:18:41;;;;;;;8.55;4.35;;;;;;;1.84;77.48;100611.31;4955479;29;20040;-63
2022/01/29 10:24:26;;;;;;;12.27;4.43;;;;;;;1.94;77.66;100598.38;4434065;23;20051;-65
2022/01/29 10:26:55;;;;;;;9.52;4.70;;;;;;;2.01;78.22;100605.44;4974287;28;20046;-64
2022/01/29 10:29:26;;;;;;;8.88;4.13;;;;;;;2.09;77.94;100596.56;4974954;28;20071;-63
2022/01/29 10:31:59;;;;;;;9.27;4.53;;;;;;;2.14;77.83;100594.28;4972773;28;20078;-63
2022/01/29 10:34:31;;;;;;;10.75;5.32;;;;;;;2.16;77.83;100587.69;4972427;28;20039;-63
2022/01/29 10:37:16;;;;;;;8.43;4.07;;;;;;;2.21;77.66;100582.03;4972197;28;20109;-63
2022/01/29 10:39:48;;;;;;;13.00;3.78;;;;;;;2.20;77.25;100579.47;4975861;28;20075;-65
2022/01/29 10:42:19;;;;;;;11.38;5.13;;;;;;;2.25;77.40;100571.34;4971817;28;20122;-63
2022/01/29 10:44:50;;;;;;;12.77;4.60;;;;;;;2.32;77.41;100563.28;4971537;28;20086;-65
2022/01/29 10:47:20;;;;;;;10.23;4.18;;;;;;;2.33;77.72;100566.63;4974070;28;20058;-63
2022/01/29 10:49:58;;;;;;;8.77;4.05;;;;;;;2.34;77.89;100564.22;4973518;28;20047;-63
2022/01/29 10:52:30;;;;;;;11.07;3.72;;;;;;;2.35;77.84;100545.75;4975775;28;20117;-64
2022/01/29 10:55:01;;;;;;;11.25;4.45;;;;;;;2.32;78.34;100545.66;4971925;28;20388;-63
2022/01/29 10:57:36;;;;;;;9.90;4.45;;;;;;;2.32;77.81;100538.09;4973078;28;20051;-63
2022/01/29 11:00:08;;;;;;;9.57;4.47;;;;;;;2.38;77.91;100535.84;4974270;28;20043;-64
2022/01/29 11:02:39;;;;;;;11.43;4.65;;;;;;;2.33;78.41;100519.66;4970505;28;20043;-62
2022/01/29 11:05:09;;;;;;;10.50;5.00;;;;;;;2.51;77.83;100538.13;4971920;28;20042;-63
2022/01/29 11:07:39;;;;;;;11.57;4.75;;;;;;;2.63;77.58;100531.13;4971856;28;20123;-63
2022/01/29 11:10:10;;;;;;;11.18;4.40;;;;;;;2.73;78.34;100527.34;4970054;28;20066;-63
2022/01/29 11:12:44;;;;;;;9.57;3.88;;;;;;;2.83;78.27;100524.44;4965721;28;20425;-64
2022/01/29 11:15:13;;;;;;;;;;;;;;;2.91;77.53;100520.56;4975488;28;20068;-64
2022/01/29 11:17:53;;;;;;;12.68;4.93;;;;;;;2.95;77.78;100507.28;4975563;28;20261;-64
2022/01/29 11:20:22;;;;;;;9.65;4.75;;;;;;;2.93;76.91;100503.00;4975565;28;20130;-63
2022/01/29 11:22:51;;;;;;;7.00;2.85;;;;;;;2.99;76.95;100498.22;4975333;28;20047;-63
2022/01/29 11:25:26;;;;;;;15.13;4.35;;;;;;;3.00;77.37;100494.91;4974158;28;20499;-63
2022/01/29 11:28:14;;;;;;;9.48;5.05;;;;;;;2.97;77.17;100490.59;4969819;28;20393;-63
2022/01/29 11:30:44;;;;;;;11.18;4.45;;;;;;;2.99;76.68;100489.00;4956779;29;20047;-64
2022/01/29 11:33:14;;;;;;;10.60;3.70;;;;;;;2.98;76.08;100483.88;4968870;28;20070;-63
2022/01/29 11:35:58;;;;;;;11.00;3.97;;;;;;;2.96;76.09;100482.94;4972376;28;20047;-64
2022/01/29 11:38:31;;;;;;;11.57;3.78;;;;;;;2.93;76.37;100477.81;4973836;28;20035;-64
2022/01/29 11:41:02;;;;;;;10.63;3.33;;;;;;;2.96;76.80;100467.81;4962424;28;20054;-64
2022/01/29 11:43:35;;;;;;;13.80;4.15;;;;;;;2.98;76.80;100456.13;4963429;28;20051;-64
2022/01/29 11:46:32;;;;;;;13.25;4.00;;;;;;;3.13;76.76;100449.22;4947994;28;20049;-64
2022/01/29 11:49:18;;;;;;;8.73;3.38;;;;;;;3.19;76.71;100446.97;4965023;28;20105;-62
2022/01/29 11:51:49;;;;;;;15.07;4.03;;;;;;;3.24;76.99;100442.94;4975771;28;20054;-62
2022/01/29 11:54:29;;;;;;;10.98;3.03;;;;;;;3.28;76.70;100439.75;4975438;28;20043;-64
2022/01/29 11:57:08;;;;;;;12.18;4.50;;;;;;;3.36;76.13;100435.84;4975692;28;20411;-64
2022/01/29 11:59:42;;;;;;;11.02;3.22;;;;;;;3.41;76.15;100433.53;4972664;28;20043;-63
2022/01/29 12:02:40;;;;;;;9.30;4.07;;;;;;;3.45;76.29;100426.16;4975299;28;20062;-65
2022/01/29 12:05:31;;;;;;;16.38;5.07;;;;;;;3.45;76.12;100413.53;4960755;28;20035;-62
2022/01/29 12:08:16;;;;;;;10.52;4.30;;;;;;;3.45;75.88;100408.50;4975105;28;20046;-64
2022/01/29 12:10:53;;;;;;;9.15;3.85;;;;;;;3.46;75.89;100402.63;4974684;28;20050;-63
2022/01/29 12:13:22;;;;;;;10.35;4.40;;;;;;;3.44;75.56;100399.19;4975159;28;20093;-62
2022/01/29 12:15:57;;;;;;;9.70;4.43;;;;;;;3.40;76.26;100394.84;4971758;28;20051;-62
2022/01/29 12:21:44;;;;;;;11.10;3.83;;;;;;;3.41;75.69;100381.41;4907124;29;20040;-66
2022/01/29 12:24:20;;;;;;;7.57;3.55;;;;;;;3.43;75.50;100368.88;4908956;29;20122;-66
2022/01/29 12:26:54;;;;;;;11.30;3.83;;;;;;;3.45;75.56;100372.31;4913347;29;20044;-66
2022/01/29 12:29:23;;;;;;;12.98;4.18;;;;;;;3.49;75.93;100369.97;4906840;29;20111;-66
2022/01/29 12:31:53;;;;;;;8.90;4.53;;;;;;;3.54;76.33;100365.94;4914210;29;20498;-67
2022/01/29 12:34:22;;;;;;;11.30;4.55;;;;;;;3.57;76.06;100358.50;4912070;29;20056;-66
2022/01/29 12:36:52;;;;;;;10.30;4.90;;;;;;;3.59;75.55;100344.28;4917089;29;20044;-66
2022/01/29 12:39:27;;;;;;;10.73;4.05;;;;;;;3.59;75.65;100341.75;4917455;29;20048;-66
2022/01/29 12:42:04;;;;;;;9.80;4.82;;;;;;;3.62;75.75;100344.41;4917398;29;20103;-65
2022/01/29 12:44:33;;;;;;;14.55;5.05;;;;;;;3.60;76.51;100335.88;4917398;29;20048;-66
2022/01/29 12:47:02;;;;;;;10.15;4.68;;;;;;;3.64;76.27;100336.88;4917580;29;20054;-65
2022/01/29 12:49:40;;;;;;;9.30;4.88;;;;;;;3.64;75.65;100331.81;4917291;29;20162;-65